sensor_id;sensor_type;location;lat;lon;timestamp;pressure;altitude;pressure_sealevel;temperature;humidity
48872;BME280;36154;51.674;7.824;2023-06-24T00:01:14;101655.72;;;24.52;45.60
48872;BME280;36154;51.674;7.824;2023-06-24T00:03:40;101654.94;;;24.50;45.81
48872;BME280;36154;51.674;7.824;2023-06-24T00:06:05;101645.47;;;24.47;45.58
48872;BME280;36154;51.674;7.824;2023-06-24T00:08:30;101646.44;;;24.43;45.55
48872;BME280;36154;51.674;7.824;2023-06-24T00:11:05;101651.69;;;24.42;45.64
48872;BME280;36154;51.674;7.824;2023-06-24T00:13:30;101655.31;;;24.38;45.76
48872;BME280;36154;51.674;7.824;2023-06-24T00:15:56;101653.59;;;24.36;45.88
48872;BME280;36154;51.674;7.824;2023-06-24T00:18:21;101658.00;;;24.34;45.51
48872;BME280;36154;51.674;7.824;2023-06-24T00:20:49;101652.78;;;24.34;45.62
48872;BME280;36154;51.674;7.824;2023-06-24T00:23:17;101655.47;;;24.31;45.77
48872;BME280;36154;51.674;7.824;2023-06-24T00:25:45;101658.16;;;24.28;46.02
48872;BME280;36154;51.674;7.824;2023-06-24T00:28:11;101659.97;;;24.26;46.20
48872;BME280;36154;51.674;7.824;2023-06-24T00:30:36;101664.31;;;24.24;45.75
48872;BME280;36154;51.674;7.824;2023-06-24T00:33:01;101666.09;;;24.22;46.21
48872;BME280;36154;51.674;7.824;2023-06-24T00:35:27;101656.59;;;24.21;45.95
48872;BME280;36154;51.674;7.824;2023-06-24T00:37:53;101660.09;;;24.20;46.23
48872;BME280;36154;51.674;7.824;2023-06-24T00:40:23;101657.56;;;24.17;45.97
48872;BME280;36154;51.674;7.824;2023-06-24T00:42:49;101657.69;;;24.14;46.16
48872;BME280;36154;51.674;7.824;2023-06-24T00:45:14;101656.84;;;24.12;46.37
48872;BME280;36154;51.674;7.824;2023-06-24T00:47:41;101655.16;;;24.11;46.17
48872;BME280;36154;51.674;7.824;2023-06-24T00:50:07;101654.38;;;24.07;46.22
48872;BME280;36154;51.674;7.824;2023-06-24T00:52:32;101663.03;;;24.08;46.33
48872;BME280;36154;51.674;7.824;2023-06-24T00:54:58;101658.72;;;24.07;46.50
48872;BME280;36154;51.674;7.824;2023-06-24T00:57:23;101659.63;;;24.06;46.62
48872;BME280;36154;51.674;7.824;2023-06-24T00:59:50;101657.94;;;24.03;46.42
48872;BME280;36154;51.674;7.824;2023-06-24T01:02:19;101659.75;;;24.01;46.62
48872;BME280;36154;51.674;7.824;2023-06-24T01:04:46;101655.50;;;23.97;46.65
48872;BME280;36154;51.674;7.824;2023-06-24T01:07:12;101660.78;;;23.95;46.68
48872;BME280;36154;51.674;7.824;2023-06-24T01:09:37;101652.13;;;23.93;46.81
48872;BME280;36154;51.674;7.824;2023-06-24T01:12:03;101660.03;;;23.90;47.36
48872;BME280;36154;51.674;7.824;2023-06-24T01:14:28;101657.53;;;23.87;47.05
48872;BME280;36154;51.674;7.824;2023-06-24T01:17:06;101657.53;;;23.87;47.20
48872;BME280;36154;51.674;7.824;2023-06-24T01:20:06;101652.41;;;23.84;47.58
48872;BME280;36154;51.674;7.824;2023-06-24T01:33:47;101657.03;;;23.73;47.98
48872;BME280;36154;51.674;7.824;2023-06-24T01:36:17;101656.22;;;23.71;48.24
48872;BME280;36154;51.674;7.824;2023-06-24T01:38:47;101649.28;;;23.70;48.09
48872;BME280;36154;51.674;7.824;2023-06-24T01:41:16;101650.28;;;23.66;48.34
48872;BME280;36154;51.674;7.824;2023-06-24T01:43:44;101652.06;;;23.63;48.21
48872;BME280;36154;51.674;7.824;2023-06-24T01:46:11;101639.09;;;23.62;47.99
48872;BME280;36154;51.674;7.824;2023-06-24T01:48:38;101637.41;;;23.59;48.50
48872;BME280;36154;51.674;7.824;2023-06-24T01:51:11;101636.66;;;23.56;48.48
48872;BME280;36154;51.674;7.824;2023-06-24T01:53:39;101645.34;;;23.53;48.34
48872;BME280;36154;51.674;7.824;2023-06-24T01:56:09;101639.41;;;23.48;48.48
48872;BME280;36154;51.674;7.824;2023-06-24T01:58:36;101643.00;;;23.44;48.34
48872;BME280;36154;51.674;7.824;2023-06-24T02:01:03;101641.34;;;23.40;48.66
48872;BME280;36154;51.674;7.824;2023-06-24T02:03:31;101644.84;;;23.39;48.66
48872;BME280;36154;51.674;7.824;2023-06-24T02:05:59;101641.44;;;23.37;48.52
48872;BME280;36154;51.674;7.824;2023-06-24T02:08:29;101641.50;;;23.34;48.71
48872;BME280;36154;51.674;7.824;2023-06-24T02:10:55;101639.84;;;23.30;48.68
48872;BME280;36154;51.674;7.824;2023-06-24T02:13:22;101643.38;;;23.29;48.65
48872;BME280;36154;51.674;7.824;2023-06-24T02:15:49;101647.72;;;23.26;48.71
48872;BME280;36154;51.674;7.824;2023-06-24T02:18:16;101653.00;;;23.25;48.56
48872;BME280;36154;51.674;7.824;2023-06-24T02:20:43;101648.72;;;23.22;48.64
48872;BME280;36154;51.674;7.824;2023-06-24T02:23:12;101648.72;;;23.22;48.64
48872;BME280;36154;51.674;7.824;2023-06-24T02:25:38;101639.28;;;23.18;49.11
48872;BME280;36154;51.674;7.824;2023-06-24T02:28:05;101636.75;;;23.15;48.70
48872;BME280;36154;51.674;7.824;2023-06-24T02:30:31;101637.63;;;23.14;49.04
48872;BME280;36154;51.674;7.824;2023-06-24T02:32:57;101646.28;;;23.15;48.77
48872;BME280;36154;51.674;7.824;2023-06-24T02:35:22;101648.91;;;23.13;49.07
48872;BME280;36154;51.674;7.824;2023-06-24T02:37:48;101647.22;;;23.12;48.90
48872;BME280;36154;51.674;7.824;2023-06-24T02:40:13;101649.00;;;23.10;48.96
48872;BME280;36154;51.674;7.824;2023-06-24T02:42:39;101648.13;;;23.10;49.16
48872;BME280;36154;51.674;7.824;2023-06-24T02:45:05;101640.47;;;23.05;49.20
48872;BME280;36154;51.674;7.824;2023-06-24T02:47:31;101645.66;;;23.05;49.24
48872;BME280;36154;51.674;7.824;2023-06-24T02:49:57;101639.63;;;23.03;49.19
48872;BME280;36154;51.674;7.824;2023-06-24T02:52:24;101644.00;;;23.01;49.06
48872;BME280;36154;51.674;7.824;2023-06-24T02:54:49;101642.38;;;22.97;49.28
48872;BME280;36154;51.674;7.824;2023-06-24T02:57:15;101651.03;;;22.97;49.23
48872;BME280;36154;51.674;7.824;2023-06-24T02:59:40;101645.94;;;22.93;49.33
48872;BME280;36154;51.674;7.824;2023-06-24T03:02:06;101653.72;;;22.93;49.37
48872;BME280;36154;51.674;7.824;2023-06-24T03:04:32;101654.63;;;22.92;49.36
48872;BME280;36154;51.674;7.824;2023-06-24T03:06:59;101656.34;;;22.91;49.49
48872;BME280;36154;51.674;7.824;2023-06-24T03:09:26;101653.81;;;22.88;49.62
48872;BME280;36154;51.674;7.824;2023-06-24T03:11:52;101659.91;;;22.88;49.22
48872;BME280;36154;51.674;7.824;2023-06-24T03:14:17;101659.97;;;22.85;49.50
48872;BME280;36154;51.674;7.824;2023-06-24T03:16:43;101648.75;;;22.83;49.73
48872;BME280;36154;51.674;7.824;2023-06-24T03:19:08;101651.34;;;22.83;49.42
48872;BME280;36154;51.674;7.824;2023-06-24T03:21:33;101655.66;;;22.81;49.61
48872;BME280;36154;51.674;7.824;2023-06-24T03:23:59;101651.38;;;22.80;49.82
48872;BME280;36154;51.674;7.824;2023-06-24T03:26:31;101649.66;;;22.79;49.89
48872;BME280;36154;51.674;7.824;2023-06-24T03:28:57;101660.97;;;22.78;49.91
48872;BME280;36154;51.674;7.824;2023-06-24T03:31:22;101661.00;;;22.77;49.76
48872;BME280;36154;51.674;7.824;2023-06-24T03:33:48;101656.69;;;22.74;49.57
48872;BME280;36154;51.674;7.824;2023-06-24T03:36:14;101661.06;;;22.74;49.95
48872;BME280;36154;51.674;7.824;2023-06-24T03:38:39;101655.03;;;22.71;49.73
48872;BME280;36154;51.674;7.824;2023-06-24T03:41:05;101648.16;;;22.69;49.84
48872;BME280;36154;51.674;7.824;2023-06-24T03:43:30;101658.53;;;22.69;50.10
48872;BME280;36154;51.674;7.824;2023-06-24T03:45:56;101661.19;;;22.67;49.91
48872;BME280;36154;51.674;7.824;2023-06-24T03:48:21;101656.91;;;22.65;50.14
48872;BME280;36154;51.674;7.824;2023-06-24T03:50:46;101650.88;;;22.63;49.95
48872;BME280;36154;51.674;7.824;2023-06-24T03:53:11;101653.56;;;22.60;50.03
48872;BME280;36154;51.674;7.824;2023-06-24T03:55:37;101653.56;;;22.60;49.93
48872;BME280;36154;51.674;7.824;2023-06-24T03:58:02;101653.56;;;22.60;50.11
48872;BME280;36154;51.674;7.824;2023-06-24T04:00:27;101658.78;;;22.58;50.36
48872;BME280;36154;51.674;7.824;2023-06-24T04:02:53;101665.72;;;22.58;50.24
48872;BME280;36154;51.674;7.824;2023-06-24T04:05:18;101664.00;;;22.57;50.32
48872;BME280;36154;51.674;7.824;2023-06-24T04:07:43;101664.00;;;22.57;50.12
48872;BME280;36154;51.674;7.824;2023-06-24T04:10:12;101657.94;;;22.56;50.30
48872;BME280;36154;51.674;7.824;2023-06-24T04:12:38;101659.66;;;22.57;50.35
48872;BME280;36154;51.674;7.824;2023-06-24T04:15:04;101662.28;;;22.56;50.41
48872;BME280;36154;51.674;7.824;2023-06-24T04:17:30;101662.28;;;22.56;50.62
48872;BME280;36154;51.674;7.824;2023-06-24T04:19:55;101664.88;;;22.56;50.27
48872;BME280;36154;51.674;7.824;2023-06-24T04:22:21;101658.81;;;22.57;50.49
48872;BME280;36154;51.674;7.824;2023-06-24T04:24:46;101664.00;;;22.58;50.32
48872;BME280;36154;51.674;7.824;2023-06-24T04:27:11;101658.81;;;22.57;50.27
48872;BME280;36154;51.674;7.824;2023-06-24T04:29:36;101664.00;;;22.58;50.38
48872;BME280;36154;51.674;7.824;2023-06-24T04:32:02;101664.84;;;22.59;50.38
48872;BME280;36154;51.674;7.824;2023-06-24T04:34:27;101659.66;;;22.57;50.49
48872;BME280;36154;51.674;7.824;2023-06-24T04:36:53;101660.50;;;22.58;50.57
48872;BME280;36154;51.674;7.824;2023-06-24T04:39:18;101665.72;;;22.58;50.62
48872;BME280;36154;51.674;7.824;2023-06-24T04:41:43;101665.66;;;22.61;50.67
48872;BME280;36154;51.674;7.824;2023-06-24T04:44:09;101666.47;;;22.63;50.51
48872;BME280;36154;51.674;7.824;2023-06-24T04:46:34;101667.38;;;22.62;50.63
48872;BME280;36154;51.674;7.824;2023-06-24T04:49:00;101665.59;;;22.64;50.57
48872;BME280;36154;51.674;7.824;2023-06-24T04:51:25;101667.28;;;22.66;50.46
48872;BME280;36154;51.674;7.824;2023-06-24T04:53:50;101668.94;;;22.69;50.52
48872;BME280;36154;51.674;7.824;2023-06-24T04:56:16;101668.06;;;22.70;50.37
48872;BME280;36154;51.674;7.824;2023-06-24T04:58:41;101664.59;;;22.69;50.67
48872;BME280;36154;51.674;7.824;2023-06-24T05:01:07;101673.22;;;22.71;50.31
48872;BME280;36154;51.674;7.824;2023-06-24T05:03:32;101670.59;;;22.73;49.92
48872;BME280;36154;51.674;7.824;2023-06-24T05:05:57;101667.09;;;22.74;49.99
48872;BME280;36154;51.674;7.824;2023-06-24T05:08:22;101658.44;;;22.75;49.83
48872;BME280;36154;51.674;7.824;2023-06-24T05:10:48;101665.31;;;22.76;49.77
48872;BME280;36154;51.674;7.824;2023-06-24T05:13:13;101667.03;;;22.77;49.90
48872;BME280;36154;51.674;7.824;2023-06-24T05:15:38;101664.41;;;22.79;49.87
48872;BME280;36154;51.674;7.824;2023-06-24T05:18:03;101662.69;;;22.78;50.11
48872;BME280;36154;51.674;7.824;2023-06-24T05:20:29;101666.16;;;22.78;50.13
48872;BME280;36154;51.674;7.824;2023-06-24T05:22:54;101659.22;;;22.79;50.43
48872;BME280;36154;51.674;7.824;2023-06-24T05:25:20;101662.69;;;22.78;50.27
48872;BME280;36154;51.674;7.824;2023-06-24T05:27:45;101667.88;;;22.78;50.28
48872;BME280;36154;51.674;7.824;2023-06-24T05:30:11;101662.69;;;22.78;50.46
48872;BME280;36154;51.674;7.824;2023-06-24T05:32:37;101670.44;;;22.79;50.46
48872;BME280;36154;51.674;7.824;2023-06-24T05:35:03;101666.97;;;22.80;50.66
48872;BME280;36154;51.674;7.824;2023-06-24T05:37:29;101665.22;;;22.82;50.74
48872;BME280;36154;51.674;7.824;2023-06-24T05:39:54;101660.84;;;22.84;50.76
48872;BME280;36154;51.674;7.824;2023-06-24T05:42:22;101668.56;;;22.87;50.79
48872;BME280;36154;51.674;7.824;2023-06-24T05:44:48;101670.28;;;22.88;50.83
48872;BME280;36154;51.674;7.824;2023-06-24T05:47:13;101676.31;;;22.91;50.52
48872;BME280;36154;51.674;7.824;2023-06-24T05:49:39;101674.56;;;22.91;50.39
48872;BME280;36154;51.674;7.824;2023-06-24T05:52:04;101671.91;;;22.93;49.86
48872;BME280;36154;51.674;7.824;2023-06-24T05:54:30;101677.06;;;22.96;50.09
48872;BME280;36154;51.674;7.824;2023-06-24T05:56:55;101688.28;;;22.96;49.93
48872;BME280;36154;51.674;7.824;2023-06-24T05:59:20;101668.38;;;22.97;49.91
48872;BME280;36154;51.674;7.824;2023-06-24T06:01:46;101678.72;;;23.00;49.90
48872;BME280;36154;51.674;7.824;2023-06-24T06:04:11;101674.31;;;23.02;50.40
48872;BME280;36154;51.674;7.824;2023-06-24T06:06:36;101672.53;;;23.04;50.25
48872;BME280;36154;51.674;7.824;2023-06-24T06:09:01;101675.06;;;23.07;50.11
48872;BME280;36154;51.674;7.824;2023-06-24T06:11:27;101676.69;;;23.11;49.73
48872;BME280;36154;51.674;7.824;2023-06-24T06:13:53;101673.22;;;23.12;49.81
48872;BME280;36154;51.674;7.824;2023-06-24T06:16:18;101672.28;;;23.15;49.50
48872;BME280;36154;51.674;7.824;2023-06-24T06:18:43;101676.56;;;23.17;49.53
48872;BME280;36154;51.674;7.824;2023-06-24T06:21:08;101666.94;;;23.21;49.23
48872;BME280;36154;51.674;7.824;2023-06-24T06:23:34;101674.66;;;23.25;49.20
48872;BME280;36154;51.674;7.824;2023-06-24T06:25:59;101670.22;;;23.29;49.35
48872;BME280;36154;51.674;7.824;2023-06-24T06:28:24;101674.50;;;23.32;49.23
48872;BME280;36154;51.674;7.824;2023-06-24T06:30:50;101672.72;;;23.34;49.00
48872;BME280;36154;51.674;7.824;2023-06-24T06:33:15;101672.69;;;23.35;48.91
48872;BME280;36154;51.674;7.824;2023-06-24T06:35:41;101676.94;;;23.38;49.18
48872;BME280;36154;51.674;7.824;2023-06-24T06:38:08;101670.78;;;23.42;49.04
48872;BME280;36154;51.674;7.824;2023-06-24T06:40:33;101679.41;;;23.44;48.98
48872;BME280;36154;51.674;7.824;2023-06-24T06:43:00;101675.81;;;23.48;48.87
48872;BME280;36154;51.674;7.824;2023-06-24T06:45:25;101675.75;;;23.51;48.87
48872;BME280;36154;51.674;7.824;2023-06-24T06:47:51;101677.44;;;23.54;48.72
48872;BME280;36154;51.674;7.824;2023-06-24T06:50:16;101677.44;;;23.55;48.90
48872;BME280;36154;51.674;7.824;2023-06-24T06:52:41;101685.13;;;23.58;48.81
48872;BME280;36154;51.674;7.824;2023-06-24T06:55:07;101685.97;;;23.60;48.59
48872;BME280;36154;51.674;7.824;2023-06-24T06:57:32;101687.63;;;23.63;48.56
48872;BME280;36154;51.674;7.824;2023-06-24T06:59:58;101686.72;;;23.66;48.87
48872;BME280;36154;51.674;7.824;2023-06-24T07:02:25;101687.44;;;23.71;48.81
48872;BME280;36154;51.674;7.824;2023-06-24T07:04:51;101691.72;;;23.72;48.36
48872;BME280;36154;51.674;7.824;2023-06-24T07:07:16;101691.66;;;23.75;48.40
48872;BME280;36154;51.674;7.824;2023-06-24T07:09:42;101688.19;;;23.76;48.56
48872;BME280;36154;51.674;7.824;2023-06-24T07:12:08;101695.00;;;23.80;48.33
48872;BME280;36154;51.674;7.824;2023-06-24T07:14:33;101685.44;;;23.82;48.80
48872;BME280;36154;51.674;7.824;2023-06-24T07:16:58;101690.50;;;23.87;48.87
48872;BME280;36154;51.674;7.824;2023-06-24T07:19:24;101686.06;;;23.90;48.71
48872;BME280;36154;51.674;7.824;2023-06-24T07:21:49;101684.25;;;23.94;48.47
48872;BME280;36154;51.674;7.824;2023-06-24T07:24:14;101696.31;;;23.96;48.38
48872;BME280;36154;51.674;7.824;2023-06-24T07:26:40;101682.41;;;23.97;48.68
48872;BME280;36154;51.674;7.824;2023-06-24T07:29:06;101688.34;;;24.03;48.37
48872;BME280;36154;51.674;7.824;2023-06-24T07:31:32;101689.13;;;24.06;48.25
48872;BME280;36154;51.674;7.824;2023-06-24T07:33:57;101693.41;;;24.09;48.64
48872;BME280;36154;51.674;7.824;2023-06-24T07:36:22;101689.81;;;24.13;48.21
48872;BME280;36154;51.674;7.824;2023-06-24T07:38:48;101690.59;;;24.15;48.23
48872;BME280;36154;51.674;7.824;2023-06-24T07:41:13;101693.19;;;24.16;48.18
48872;BME280;36154;51.674;7.824;2023-06-24T07:43:38;101692.22;;;24.21;48.22
48872;BME280;36154;51.674;7.824;2023-06-24T07:46:04;101691.25;;;24.23;48.32
48872;BME280;36154;51.674;7.824;2023-06-24T07:48:29;101689.47;;;24.25;48.52
48872;BME280;36154;51.674;7.824;2023-06-24T07:50:54;101696.34;;;24.29;48.23
48872;BME280;36154;51.674;7.824;2023-06-24T07:53:20;101696.34;;;24.29;48.05
48872;BME280;36154;51.674;7.824;2023-06-24T07:55:45;101691.97;;;24.30;48.15
48872;BME280;36154;51.674;7.824;2023-06-24T07:58:10;101689.41;;;24.28;47.83
48872;BME280;36154;51.674;7.824;2023-06-24T08:00:36;101683.28;;;24.31;47.70
48872;BME280;36154;51.674;7.824;2023-06-24T08:03:01;101684.97;;;24.32;47.53
48872;BME280;36154;51.674;7.824;2023-06-24T08:05:27;101690.09;;;24.35;47.33
48872;BME280;36154;51.674;7.824;2023-06-24T08:07:52;101687.38;;;24.40;47.48
48872;BME280;36154;51.674;7.824;2023-06-24T08:10:18;101686.41;;;24.42;47.14
48872;BME280;36154;51.674;7.824;2023-06-24T08:12:44;101690.69;;;24.45;47.16
48872;BME280;36154;51.674;7.824;2023-06-24T08:15:09;101683.69;;;24.47;46.75
48872;BME280;36154;51.674;7.824;2023-06-24T08:17:35;101687.16;;;24.47;46.74
48872;BME280;36154;51.674;7.824;2023-06-24T08:20:04;101693.94;;;24.53;46.22
48872;BME280;36154;51.674;7.824;2023-06-24T08:22:29;101692.13;;;24.55;46.24
48872;BME280;36154;51.674;7.824;2023-06-24T08:24:55;101684.28;;;24.57;45.80
48872;BME280;36154;51.674;7.824;2023-06-24T08:27:20;101682.50;;;24.57;46.24
48872;BME280;36154;51.674;7.824;2023-06-24T08:29:45;101684.19;;;24.60;46.33
48872;BME280;36154;51.674;7.824;2023-06-24T08:32:10;101690.16;;;24.63;46.36
48872;BME280;36154;51.674;7.824;2023-06-24T08:34:36;101688.34;;;24.65;46.18
48872;BME280;36154;51.674;7.824;2023-06-24T08:37:01;101681.34;;;24.67;45.94
48872;BME280;36154;51.674;7.824;2023-06-24T08:39:27;101676.94;;;24.69;45.36
48872;BME280;36154;51.674;7.824;2023-06-24T08:41:52;101679.47;;;24.72;45.31
48872;BME280;36154;51.674;7.824;2023-06-24T08:44:17;101677.66;;;24.74;45.56
48872;BME280;36154;51.674;7.824;2023-06-24T08:46:43;101666.28;;;24.77;45.05
48872;BME280;36154;51.674;7.824;2023-06-24T08:51:51;101666.94;;;24.84;45.04
48872;BME280;36154;51.674;7.824;2023-06-24T08:54:19;101664.25;;;24.87;44.95
48872;BME280;36154;51.674;7.824;2023-06-24T08:56:46;101665.03;;;24.89;44.49
48872;BME280;36154;51.674;7.824;2023-06-24T08:59:12;101665.88;;;24.91;45.14
48872;BME280;36154;51.674;7.824;2023-06-24T09:01:37;101663.16;;;24.94;44.94
48872;BME280;36154;51.674;7.824;2023-06-24T09:04:03;101661.41;;;24.96;44.52
48872;BME280;36154;51.674;7.824;2023-06-24T09:06:29;101664.81;;;24.98;44.64
48872;BME280;36154;51.674;7.824;2023-06-24T09:08:55;101666.50;;;24.99;44.65
48872;BME280;36154;51.674;7.824;2023-06-24T09:11:26;101665.56;;;25.02;44.53
48872;BME280;36154;51.674;7.824;2023-06-24T09:13:59;101668.13;;;25.03;44.15
48872;BME280;36154;51.674;7.824;2023-06-24T09:16:27;101665.47;;;25.05;44.77
48872;BME280;36154;51.674;7.824;2023-06-24T09:18:53;101665.41;;;25.06;44.70
48872;BME280;36154;51.674;7.824;2023-06-24T09:21:26;101638.63;;;25.01;44.71
48872;BME280;36154;51.674;7.824;2023-06-24T09:23:53;101640.22;;;25.05;44.74
48872;BME280;36154;51.674;7.824;2023-06-24T09:26:18;101651.59;;;25.04;44.69
48872;BME280;36154;51.674;7.824;2023-06-24T09:28:48;101645.44;;;25.05;44.86
48872;BME280;36154;51.674;7.824;2023-06-24T09:31:14;101652.38;;;25.06;44.54
48872;BME280;36154;51.674;7.824;2023-06-24T09:33:40;101644.47;;;25.09;44.93
48872;BME280;36154;51.674;7.824;2023-06-24T09:36:05;101643.53;;;25.10;44.49
48872;BME280;36154;51.674;7.824;2023-06-24T09:38:37;101635.63;;;25.14;44.54
48872;BME280;36154;51.674;7.824;2023-06-24T09:41:05;101636.44;;;25.16;44.38
48872;BME280;36154;51.674;7.824;2023-06-24T09:43:37;101631.09;;;25.19;44.71
48872;BME280;36154;51.674;7.824;2023-06-24T09:46:05;101627.63;;;25.20;44.55
48872;BME280;36154;51.674;7.824;2023-06-24T09:48:31;101632.72;;;25.23;44.76
48872;BME280;36154;51.674;7.824;2023-06-24T09:50:59;101634.31;;;25.27;44.58
48872;BME280;36154;51.674;7.824;2023-06-24T09:53:25;101631.66;;;25.28;44.85
48872;BME280;36154;51.674;7.824;2023-06-24T09:55:50;101627.28;;;25.29;44.93
48872;BME280;36154;51.674;7.824;2023-06-24T09:58:17;101626.34;;;25.32;44.50
48872;BME280;36154;51.674;7.824;2023-06-24T10:00:43;101628.91;;;25.33;44.72
48872;BME280;36154;51.674;7.824;2023-06-24T10:03:08;101620.16;;;25.34;44.34
48872;BME280;36154;51.674;7.824;2023-06-24T10:05:34;101614.19;;;25.31;44.51
48872;BME280;36154;51.674;7.824;2023-06-24T10:08:02;101618.38;;;25.36;44.83
48872;BME280;36154;51.674;7.824;2023-06-24T10:10:30;101606.22;;;25.35;44.41
48872;BME280;36154;51.674;7.824;2023-06-24T10:12:55;101607.94;;;25.36;44.47
48872;BME280;36154;51.674;7.824;2023-06-24T10:15:21;101608.78;;;25.37;44.74
48872;BME280;36154;51.674;7.824;2023-06-24T10:17:47;101613.03;;;25.39;44.71
48872;BME280;36154;51.674;7.824;2023-06-24T10:20:13;101603.41;;;25.41;44.21
48872;BME280;36154;51.674;7.824;2023-06-24T10:22:38;101604.22;;;25.43;44.33
48872;BME280;36154;51.674;7.824;2023-06-24T10:25:06;101593.78;;;25.43;44.04
48872;BME280;36154;51.674;7.824;2023-06-24T10:27:39;101598.03;;;25.46;44.18
48872;BME280;36154;51.674;7.824;2023-06-24T10:30:07;101600.47;;;25.51;44.18
48872;BME280;36154;51.674;7.824;2023-06-24T10:32:40;101610.91;;;25.51;44.33
48872;BME280;36154;51.674;7.824;2023-06-24T10:35:25;101595.16;;;25.54;44.18
48872;BME280;36154;51.674;7.824;2023-06-24T10:37:54;101593.34;;;25.56;44.31
48872;BME280;36154;51.674;7.824;2023-06-24T10:40:34;101587.28;;;25.55;44.56
48872;BME280;36154;51.674;7.824;2023-06-24T10:43:00;101582.91;;;25.56;44.16
48872;BME280;36154;51.674;7.824;2023-06-24T10:45:26;101590.63;;;25.59;44.48
48872;BME280;36154;51.674;7.824;2023-06-24T10:47:51;101598.41;;;25.60;44.37
48872;BME280;36154;51.674;7.824;2023-06-24T10:50:21;101584.50;;;25.60;44.20
48872;BME280;36154;51.674;7.824;2023-06-24T10:52:51;101584.50;;;25.60;44.21
48872;BME280;36154;51.674;7.824;2023-06-24T10:55:24;101582.69;;;25.62;44.62
48872;BME280;36154;51.674;7.824;2023-06-24T10:57:50;101579.22;;;25.63;44.46
48872;BME280;36154;51.674;7.824;2023-06-24T11:00:16;101568.78;;;25.63;44.00
48872;BME280;36154;51.674;7.824;2023-06-24T11:02:41;101572.19;;;25.65;43.59
48872;BME280;36154;51.674;7.824;2023-06-24T11:05:07;101566.97;;;25.65;43.39
48872;BME280;36154;51.674;7.824;2023-06-24T11:07:34;101565.13;;;25.67;43.29
48872;BME280;36154;51.674;7.824;2023-06-24T11:10:10;101563.31;;;25.69;43.65
48872;BME280;36154;51.674;7.824;2023-06-24T11:12:38;101568.44;;;25.72;43.64
48872;BME280;36154;51.674;7.824;2023-06-24T11:15:05;101560.59;;;25.72;43.61
48872;BME280;36154;51.674;7.824;2023-06-24T11:17:32;101562.28;;;25.75;43.28
48872;BME280;36154;51.674;7.824;2023-06-24T11:19:58;101559.56;;;25.76;43.54
48872;BME280;36154;51.674;7.824;2023-06-24T11:22:25;101562.19;;;25.76;43.62
48872;BME280;36154;51.674;7.824;2023-06-24T11:24:51;101561.28;;;25.77;43.06
48872;BME280;36154;51.674;7.824;2023-06-24T11:27:19;101543.91;;;25.76;42.52
48872;BME280;36154;51.674;7.824;2023-06-24T11:29:48;101542.19;;;25.77;42.12
48872;BME280;36154;51.674;7.824;2023-06-24T11:32:16;101549.13;;;25.76;41.93
48872;BME280;36154;51.674;7.824;2023-06-24T11:34:41;101549.94;;;25.78;42.11
48872;BME280;36154;51.674;7.824;2023-06-24T11:37:30;101564.69;;;25.79;42.11
48872;BME280;36154;51.674;7.824;2023-06-24T11:40:03;101549.03;;;25.79;42.54
48872;BME280;36154;51.674;7.824;2023-06-24T11:42:30;101555.97;;;25.80;42.47
48872;BME280;36154;51.674;7.824;2023-06-24T11:45:03;101545.50;;;25.80;42.26
48872;BME280;36154;51.674;7.824;2023-06-24T11:47:32;101544.69;;;25.80;42.30
48872;BME280;36154;51.674;7.824;2023-06-24T11:49:59;101549.03;;;25.79;41.91
48872;BME280;36154;51.674;7.824;2023-06-24T11:52:45;101542.97;;;25.79;41.18
48872;BME280;36154;51.674;7.824;2023-06-24T11:55:19;101535.06;;;25.80;40.90
48872;BME280;36154;51.674;7.824;2023-06-24T11:57:57;101533.25;;;25.82;40.00
48872;BME280;36154;51.674;7.824;2023-06-24T12:02:54;101534.03;;;25.84;40.12
48872;BME280;36154;51.674;7.824;2023-06-24T12:05:24;101522.81;;;25.82;40.20
48872;BME280;36154;51.674;7.824;2023-06-24T12:07:54;101520.16;;;25.84;40.42
48872;BME280;36154;51.674;7.824;2023-06-24T12:10:20;101537.56;;;25.83;40.25
48872;BME280;36154;51.674;7.824;2023-06-24T12:12:45;101528.88;;;25.83;40.68
48872;BME280;36154;51.674;7.824;2023-06-24T12:15:13;101535.06;;;25.80;40.61
48872;BME280;36154;51.674;7.824;2023-06-24T12:17:38;101525.47;;;25.81;40.75
48872;BME280;36154;51.674;7.824;2023-06-24T12:20:04;101524.63;;;25.80;40.62
48872;BME280;36154;51.674;7.824;2023-06-24T12:22:29;101522.06;;;25.79;41.33
48872;BME280;36154;51.674;7.824;2023-06-24T12:24:54;101517.69;;;25.79;41.82
48872;BME280;36154;51.674;7.824;2023-06-24T12:27:20;101514.19;;;25.80;41.76
48872;BME280;36154;51.674;7.824;2023-06-24T12:29:45;101521.91;;;25.83;42.35
48872;BME280;36154;51.674;7.824;2023-06-24T12:32:10;101520.16;;;25.84;42.21
48872;BME280;36154;51.674;7.824;2023-06-24T12:34:35;101510.53;;;25.84;42.23
48872;BME280;36154;51.674;7.824;2023-06-24T12:37:01;101507.09;;;25.84;41.96
48872;BME280;36154;51.674;7.824;2023-06-24T12:39:26;101512.25;;;25.86;42.20
48872;BME280;36154;51.674;7.824;2023-06-24T12:41:51;101513.97;;;25.87;42.33
48872;BME280;36154;51.674;7.824;2023-06-24T12:44:16;101510.44;;;25.88;42.31
48872;BME280;36154;51.674;7.824;2023-06-24T12:46:42;101506.09;;;25.88;42.28
48872;BME280;36154;51.674;7.824;2023-06-24T12:49:07;101506.94;;;25.89;42.47
48872;BME280;36154;51.674;7.824;2023-06-24T12:51:32;101509.47;;;25.90;42.23
48872;BME280;36154;51.674;7.824;2023-06-24T12:53:58;101504.25;;;25.90;42.44
48872;BME280;36154;51.674;7.824;2023-06-24T12:56:23;101501.59;;;25.92;42.33
48872;BME280;36154;51.674;7.824;2023-06-24T12:58:48;101502.44;;;25.92;42.11
48872;BME280;36154;51.674;7.824;2023-06-24T13:01:14;101498.06;;;25.93;42.11
48872;BME280;36154;51.674;7.824;2023-06-24T13:03:46;101500.66;;;25.93;41.94